Air Navigation Services of Czech Republic  
Last data update:  23.09.2018 23:27:07 UTC Česká verze
   METEO Page displayed:  23.09.2018 23:28:07 UTC  
help
METAR EDDB 232320Z 28014KT 9999 SCT014 OVC120 09/07 Q1013 TEMPO BKN013=
METAR EDDC 232320Z 29010KT 9999 -RA FEW006 BKN010 BKN040 07/06 Q1014=
METAR EDDE 232320Z 28014KT CAVOK 07/05 Q1019=
METAR EDDF 232320Z 27008KT 240V310 9999 FEW017 BKN090 10/06 Q1024 NOSIG=
METAR EDDM 232320Z 30012KT 9999 SCT016 BKN023 10/08 Q1021 NOSIG=
METAR EDDN 232320Z 31012KT 9999 FEW010 BKN023 08/05 Q1021=
METAR EDDP 232320Z 29015KT 9999 SCT014 SCT040 BKN130 08/07 Q1016 NOSIG=
METAR EDDT 232320Z 29009KT 9999 SCT008 BKN130 08/07 Q1013=
METAR EDQM NIL
METAR EPBY 232300Z 30007KT 8000 -RA FEW006 BKN036 08/08 Q1006 =
METAR EPGD 232300Z 23005KT 9999 FEW021 BKN038 08/07 Q1004 =
METAR EPKK 232300Z 23015KT 9999 -SHRA FEW030CB BKN060 16/13 Q1002 =
METAR EPKT 232300Z 21023KT 8000 -RA FEW013 14/12 Q1000 RERA =
METAR EPLL 232300Z 02005KT 6000 -RA OVC005 11/10 Q0998 =
METAR EPPO 232300Z 34009KT 9999 -RA BKN007 OVC048 08/08 Q1007 RERA R10/290393 =
METAR EPRZ 232300Z 20021KT 4600 TSRA BKN050CB 14/11 Q1002 =
METAR EPWA 232300Z 05010KT 9999 -RA BKN006 11/10 Q0998 TEMPO 4500 RA=
METAR EPWR 232300Z 33018KT 9000 -RA FEW003 SCT007 BKN009 09/08 Q1005 RERA =
METAR LHBP 232300Z 20009KT 9999 -SHRA FEW015 SCT045 BKN100 17/13 Q1009 NOSIG=
METAR LHSM NIL
SPECI LKBC 232321Z AUTO 29015G25KT 9999 OVC021 09/07 Q1014=
METAR LKCV 232300Z 31024G37KT 9999 SCT019 OVC026 11/07 Q1010 NOSIG RMK BLU BLU=
METAR LKKB 232300Z 31011G23KT 280V350 9999 BKN022 10/06 Q1012 NOSIG RMK WHT=
METAR LKKU NIL
METAR LKKV 232300Z 29009KT 260V320 9999 BKN020 06/03 Q1015 RMK REG QNH 0997=
METAR LKLN 232300Z AUTO 30007KT 250V360 9999 BKN027 BKN076 OVC170 09/05 Q1016=
METAR LKMT 232300Z 21018KT 9999 -RA NSC 15/12 Q1004 NOSIG RMK REG QNH 0997=
SPECI LKNA 232301Z 24014KT 9999 FEW024 BKN060 14/11 Q1007 RMK BLU=
METAR LKPD 232300Z 29020G33KT 9999 BKN017 OVC028 12/08 Q1008 RMK WHT=
SPECI LKPR 232309Z 31020KT 9999 BKN025 08/05 Q1014 RMK REG QNH 0997=
METAR LKTB 232300Z 20012KT 9999 -RA NSC 15/14 Q1007 NOSIG RMK REG QNH 0997=
METAR LKVO NIL
METAR LOWI 232320Z AUTO VRB04KT 9999 -RA FEW046 BKN060 14/11 Q1019=
METAR LOWL 232320Z AUTO 25017KT 9999 -SHRA FEW022 BKN028 BKN050 15/12 Q1015=
METAR LOWS 232320Z AUTO 27013KT 200V300 9999 -SHRA FEW028 SCT040 BKN060 14/08 Q1019=
METAR LOWW 232320Z 27016G27KT 9999 -SHRA FEW034 SCT070 BKN100 17/13 Q1010 BECMG 30025G40KT TEMPO SHRA=
METAR LZIB 232300Z 26009KT 9999 -SHRA FEW041 BKN085 16/14 Q1009 RETSRA WS ALL RWY=
METAR LZKZ 232300Z 21011KT 9999 OVC037 15/08 Q1008=
METAR LZMC NIL
METAR LZPP 232300Z AUTO 23004KT 9999 -RA OVC080/// 14/13 Q1009 RERA=
METAR LZSL 232300Z 33004KT 9999 -RA OVC029 12/10 Q1009=
METAR LZTT 232300Z 24010KT 9999 -SHRA FEW013 FEW026CB BKN046 11/09 Q1006 RESHRA=
METAR LZZI 232300Z 24006KT 9999 -RA BKN012 OVC020 14/12 Q1007=